createdAt,value
2024-03-09T00:00:26.857Z,99761.63
2024-03-09T00:02:56.198Z,99755.38
2024-03-09T00:05:25.429Z,99756.97
2024-03-09T00:07:56.555Z,99746.69
2024-03-09T00:10:24.769Z,99758.72
2024-03-09T00:12:52.590Z,99763.84
2024-03-09T00:15:20.510Z,99755.25
2024-03-09T00:17:48.809Z,99759.81
2024-03-09T00:20:26.376Z,99755.53
2024-03-09T00:22:54.375Z,99755.53
2024-03-09T00:25:24.029Z,99756.34
2024-03-09T00:27:51.267Z,99762.63
2024-03-09T00:30:21.224Z,99761.81
2024-03-09T00:32:51.135Z,99756.75
2024-03-09T00:35:18.248Z,99763.69
2024-03-09T00:37:45.269Z,99753.06
2024-03-09T00:40:12.279Z,99755.47
2024-03-09T00:42:39.856Z,99760.81
2024-03-09T00:45:07.689Z,99757.31
2024-03-09T00:47:37.157Z,99750.31
2024-03-09T00:50:06.281Z,99741.84
2024-03-09T00:52:33.167Z,99751.25
2024-03-09T00:54:59.756Z,99738.34
2024-03-09T00:57:26.701Z,99728.06
2024-03-09T00:59:56.585Z,99727.38
2024-03-09T01:02:23.229Z,99727.63
2024-03-09T01:04:51.907Z,99721.34
2024-03-09T01:07:20.955Z,99724.03
2024-03-09T01:09:50.649Z,99713.50
2024-03-09T01:12:19.054Z,99705.91
2024-03-09T01:14:49.552Z,99702.78
2024-03-09T01:17:22.497Z,99710.41
2024-03-09T01:19:49.428Z,99710.22
2024-03-09T01:22:16.066Z,99710.28
2024-03-09T01:24:42.743Z,99713.88
2024-03-09T01:27:09.639Z,99712.75
2024-03-09T01:29:36.779Z,99710.28
2024-03-09T01:32:06.320Z,99714.47
2024-03-09T01:34:33.178Z,99693.53
2024-03-09T01:36:59.788Z,99696.16
2024-03-09T01:39:27.127Z,99698.97
2024-03-09T01:41:53.742Z,99699.63
2024-03-09T01:44:22.935Z,99697.59
2024-03-09T01:46:51.251Z,99686.44
2024-03-09T01:49:21.562Z,99687.25
2024-03-09T01:51:50.971Z,99689.06
2024-03-09T01:54:25.188Z,99688.25
2024-03-09T01:56:52.522Z,99692.50
2024-03-09T01:59:19.295Z,99679.44
2024-03-09T02:01:46.619Z,99688.34
2024-03-09T02:04:13.310Z,99683.31
2024-03-09T02:06:41.493Z,99679.84
2024-03-09T02:09:10.870Z,99676.44
2024-03-09T02:14:06.125Z,99674.63
2024-03-09T02:16:33.431Z,99674.66
2024-03-09T02:19:01.645Z,99671.41
2024-03-09T02:21:29.219Z,99664.31
2024-03-09T02:24:05.913Z,99659.16
2024-03-09T02:26:33.381Z,99662.47
2024-03-09T02:28:59.924Z,99651.19
2024-03-09T02:31:26.764Z,99650.09
2024-03-09T02:33:55.914Z,99656.31
2024-03-09T02:36:33.785Z,99650.56
2024-03-09T02:39:02.299Z,99648.59
2024-03-09T02:41:28.935Z,99652.22
2024-03-09T02:43:56.741Z,99648.66
2024-03-09T02:46:26.805Z,99644.22
2024-03-09T02:48:57.434Z,99637.81
2024-03-09T02:51:28.443Z,99630.56
2024-03-09T02:53:55.061Z,99631.53
2024-03-09T02:56:22.075Z,99635.34
2024-03-09T02:58:50.009Z,99633.91
2024-03-09T03:01:21.504Z,99632.56
2024-03-09T03:03:58.343Z,99642.03
2024-03-09T03:06:28.879Z,99625.78
2024-03-09T03:08:58.649Z,99622.47
2024-03-09T03:11:25.343Z,99628.44
2024-03-09T03:13:52.963Z,99624.13
2024-03-09T03:16:27.394Z,99625.22
2024-03-09T03:18:54.967Z,99621.66
2024-03-09T03:21:21.536Z,99619.75
2024-03-09T03:23:51.005Z,99626.81
2024-03-09T03:26:18.469Z,99623.38
2024-03-09T03:28:46.056Z,99624.16
2024-03-09T03:31:13.386Z,99621.72
2024-03-09T03:33:40.617Z,99619.91
2024-03-09T03:36:09.488Z,99619.06
2024-03-09T03:38:36.583Z,99619.91
2024-03-09T03:41:09.174Z,99625.16
2024-03-09T03:43:37.250Z,99621.84
2024-03-09T03:46:05.464Z,99619.38
2024-03-09T03:48:33.142Z,99621.75
2024-03-09T03:51:00.050Z,99624.28
2024-03-09T03:53:26.887Z,99620.84
2024-03-09T03:55:53.457Z,99614.69
2024-03-09T03:58:20.886Z,99618.00
2024-03-09T04:00:51.434Z,99618.25
2024-03-09T04:03:18.994Z,99611.44
2024-03-09T04:05:46.792Z,99613.31
2024-03-09T04:08:15.003Z,99608.16
2024-03-09T04:10:44.396Z,99608.84
2024-03-09T04:13:12.984Z,99614.94
2024-03-09T04:15:40.766Z,99601.72
2024-03-09T04:18:07.618Z,99606.06
2024-03-09T04:20:38.877Z,99599.91
2024-03-09T04:23:06.582Z,99595.69
2024-03-09T04:25:39.665Z,99596.03
2024-03-09T04:28:07.003Z,99599.28
2024-03-09T04:30:34.519Z,99610.91
2024-03-09T04:33:07.730Z,99597.84
2024-03-09T04:35:35.946Z,99594.19
2024-03-09T04:38:03.443Z,99603.63
2024-03-09T04:40:30.103Z,99595.97
2024-03-09T04:42:56.792Z,99602.19
2024-03-09T04:45:26.625Z,99600.34
2024-03-09T04:47:53.591Z,99589.97
2024-03-09T04:50:21.184Z,99593.44
2024-03-09T04:52:48.576Z,99587.19
2024-03-09T04:55:19.143Z,99582.06
2024-03-09T04:57:46.367Z,99593.63
2024-03-09T05:00:17.977Z,99579.56
2024-03-09T05:02:48.783Z,99575.06
2024-03-09T05:05:18.320Z,99581.13
2024-03-09T05:07:50.660Z,99577.59
2024-03-09T05:10:19.097Z,99591.63
2024-03-09T05:12:56.730Z,99580.53
2024-03-09T05:15:31.472Z,99579.69
2024-03-09T05:18:02.576Z,99568.66
2024-03-09T05:20:30.332Z,99562.66
2024-03-09T05:22:58.664Z,99557.44
2024-03-09T05:25:25.649Z,99559.38
2024-03-09T05:27:53.776Z,99550.13
2024-03-09T05:30:24.199Z,99551.50
2024-03-09T05:33:03.234Z,99551.50
2024-03-09T05:35:35.223Z,99547.00
2024-03-09T05:38:05.552Z,99538.97
2024-03-09T05:40:32.650Z,99532.66
2024-03-09T05:43:02.919Z,99536.00
2024-03-09T05:45:29.836Z,99545.53
2024-03-09T05:47:58.568Z,99549.84
2024-03-09T05:50:30.794Z,99540.28
2024-03-09T05:52:59.422Z,99540.22
2024-03-09T05:55:27.208Z,99534.34
2024-03-09T05:57:55.391Z,99544.78
2024-03-09T06:00:30.403Z,99534.25
2024-03-09T06:02:59.207Z,99541.47
2024-03-09T06:05:30.513Z,99543.94
2024-03-09T06:07:58.679Z,99543.06
2024-03-09T06:10:25.615Z,99542.22
2024-03-09T06:12:53.121Z,99547.97
2024-03-09T06:15:21.572Z,99540.13
2024-03-09T06:18:02.145Z,99535.09
2024-03-09T06:20:30.617Z,99542.97
2024-03-09T06:22:58.270Z,99543.63
2024-03-09T06:25:31.304Z,99534.22
2024-03-09T06:28:17.930Z,99533.50
2024-03-09T06:30:44.529Z,99538.56
2024-03-09T06:33:11.143Z,99536.59
2024-03-09T06:35:37.765Z,99545.94
2024-03-09T06:38:07.869Z,99539.22
2024-03-09T06:40:47.617Z,99544.34
2024-03-09T06:43:14.653Z,99547.78
2024-03-09T06:45:43.426Z,99556.81
2024-03-09T06:48:10.908Z,99557.50
2024-03-09T06:50:45.582Z,99547.94
2024-03-09T06:53:12.806Z,99559.94
2024-03-09T06:55:40.484Z,99563.31
2024-03-09T06:58:07.951Z,99560.75
2024-03-09T07:00:38.777Z,99563.22
2024-03-09T07:03:06.963Z,99568.44
2024-03-09T07:05:39.140Z,99565.81
2024-03-09T07:08:08.358Z,99565.63
2024-03-09T07:10:37.173Z,99577.84
2024-03-09T07:13:07.845Z,99574.31
2024-03-09T07:15:34.597Z,99567.22
2024-03-09T07:18:02.007Z,99571.69
2024-03-09T07:20:30.068Z,99560.56
2024-03-09T07:22:58.890Z,99568.16
2024-03-09T07:25:28.053Z,99567.31
2024-03-09T07:27:57.035Z,99559.13
2024-03-09T07:30:25.464Z,99572.25
2024-03-09T07:32:54.958Z,99573.06
2024-03-09T07:35:26.531Z,99584.25
2024-03-09T07:37:55.164Z,99584.13
2024-03-09T07:40:23.781Z,99580.56
2024-03-09T07:42:51.499Z,99578.84
2024-03-09T07:45:24.021Z,99577.13
2024-03-09T07:47:51.693Z,99571.63
2024-03-09T07:50:24.982Z,99570.63
2024-03-09T07:52:54.647Z,99572.47
2024-03-09T07:55:24.548Z,99576.09
2024-03-09T08:00:39.855Z,99569.56
2024-03-09T08:03:07.212Z,99553.81
2024-03-09T08:05:33.814Z,99564.00
2024-03-09T08:08:04.164Z,99565.72
2024-03-09T08:10:33.402Z,99561.34
2024-03-09T08:13:00.415Z,99558.78
2024-03-09T08:15:33.771Z,99556.31
2024-03-09T08:18:00.455Z,99553.63
2024-03-09T08:20:30.431Z,99553.56
2024-03-09T08:22:57.093Z,99542.88
2024-03-09T08:25:28.867Z,99540.97
2024-03-09T08:27:57.860Z,99545.16
2024-03-09T08:30:27.196Z,99545.72
2024-03-09T08:33:00.276Z,99544.50
2024-03-09T08:35:35.046Z,99532.91
2024-03-09T08:38:02.150Z,99533.91
2024-03-09T08:40:31.722Z,99535.44
2024-03-09T08:42:59.495Z,99548.00
2024-03-09T08:45:30.714Z,99540.88
2024-03-09T08:47:57.996Z,99532.13
2024-03-09T08:50:35.323Z,99533.84
2024-03-09T08:53:01.926Z,99530.97
2024-03-09T08:55:34.246Z,99528.13
2024-03-09T08:58:02.458Z,99527.81
2024-03-09T09:00:29.266Z,99519.84
2024-03-09T09:02:59.718Z,99520.38
2024-03-09T09:05:28.937Z,99517.84
2024-03-09T09:07:57.202Z,99511.03
2024-03-09T09:10:26.366Z,99509.28
2024-03-09T09:12:53.691Z,99518.56
2024-03-09T09:15:26.080Z,99507.09
2024-03-09T09:17:53.175Z,99503.41
2024-03-09T09:20:21.240Z,99501.44
2024-03-09T09:22:48.978Z,99494.00
2024-03-09T09:25:17.987Z,99483.78
2024-03-09T09:27:45.293Z,99483.78
2024-03-09T09:30:12.708Z,99481.06
2024-03-09T09:32:42.847Z,99477.41
2024-03-09T09:35:10.402Z,99477.94
2024-03-09T09:37:37.220Z,99487.38
2024-03-09T09:40:04.694Z,99483.44
2024-03-09T09:42:32.801Z,99480.59
2024-03-09T09:45:00.371Z,99476.97
2024-03-09T09:47:27.266Z,99486.25
2024-03-09T09:49:55.853Z,99473.88
2024-03-09T09:52:25.890Z,99469.25
2024-03-09T09:54:57.214Z,99471.09
2024-03-09T09:57:25.885Z,99470.56
2024-03-09T09:59:52.451Z,99469.88
2024-03-09T10:02:23.246Z,99462.88
2024-03-09T10:04:51.630Z,99462.81
2024-03-09T10:07:18.269Z,99458.50
2024-03-09T10:09:45.012Z,99457.31
2024-03-09T10:12:21.220Z,99454.66
2024-03-09T10:14:47.777Z,99450.50
2024-03-09T10:17:15.532Z,99442.09
2024-03-09T10:19:44.946Z,99446.19
2024-03-09T10:22:12.227Z,99440.78
2024-03-09T10:24:58.163Z,99439.72
2024-03-09T10:27:28.749Z,99435.16
2024-03-09T10:30:24.656Z,99429.91
2024-03-09T10:32:53.015Z,99429.88
2024-03-09T10:35:20.112Z,99423.72
2024-03-09T10:37:49.603Z,99431.25
2024-03-09T10:40:17.037Z,99429.47
2024-03-09T10:42:46.946Z,99429.16
2024-03-09T10:45:15.755Z,99424.41
2024-03-09T10:47:56.597Z,99418.38
2024-03-09T10:50:31.055Z,99418.78
2024-03-09T10:53:10.417Z,99415.25
2024-03-09T10:56:05.842Z,99409.16
2024-03-09T10:58:34.423Z,99410.38
2024-03-09T11:01:01.346Z,99409.31
2024-03-09T11:03:33.385Z,99409.50
2024-03-09T11:05:59.962Z,99409.72
2024-03-09T11:08:27.112Z,99397.53
2024-03-09T11:10:55.545Z,99391.84
2024-03-09T11:13:23.091Z,99396.53
2024-03-09T11:15:53.473Z,99385.97
2024-03-09T11:18:23.249Z,99384.94
2024-03-09T11:20:55.668Z,99384.41
2024-03-09T11:23:25.551Z,99383.81
2024-03-09T11:25:54.590Z,99382.59
2024-03-09T11:28:42.902Z,99383.19
2024-03-09T11:31:13.596Z,99374.00
2024-03-09T11:33:53.229Z,99379.88
2024-03-09T11:36:43.585Z,99374.31
2024-03-09T11:39:10.995Z,99376.16
2024-03-09T11:41:44.244Z,99368.22
2024-03-09T11:44:11.650Z,99361.19
2024-03-09T11:46:38.403Z,99361.63
2024-03-09T11:49:05.835Z,99351.94
2024-03-09T11:51:36.708Z,99347.38
2024-03-09T11:54:04.870Z,99351.44
2024-03-09T11:56:32.624Z,99344.69
2024-03-09T11:59:00.394Z,99353.19
2024-03-09T12:01:27.175Z,99354.53
2024-03-09T12:03:55.160Z,99346.75
2024-03-09T12:06:25.059Z,99335.91
2024-03-09T12:08:54.930Z,99341.34
2024-03-09T12:11:25.763Z,99344.72
2024-03-09T12:13:53.747Z,99337.19
2024-03-09T12:16:20.637Z,99330.59
2024-03-09T12:18:51.064Z,99325.13
2024-03-09T12:21:18.960Z,99319.72
2024-03-09T12:23:53.398Z,99315.66
2024-03-09T12:26:21.501Z,99317.09
2024-03-09T12:28:48.233Z,99315.66
2024-03-09T12:31:15.228Z,99313.44
2024-03-09T12:33:44.914Z,99304.28
2024-03-09T12:36:12.083Z,99309.03
2024-03-09T12:38:38.811Z,99306.31
2024-03-09T12:41:11.256Z,99296.72
2024-03-09T12:43:40.958Z,99294.09
2024-03-09T12:46:07.615Z,99292.81
2024-03-09T12:48:36.932Z,99284.22
2024-03-09T12:51:05.651Z,99285.56
2024-03-09T12:53:35.115Z,99280.91
2024-03-09T12:56:04.141Z,99276.84
2024-03-09T12:58:31.659Z,99276.75
2024-03-09T13:00:59.215Z,99273.91
2024-03-09T13:03:25.960Z,99276.25
2024-03-09T13:05:52.548Z,99269.22
2024-03-09T13:08:19.393Z,99275.75
2024-03-09T13:10:48.857Z,99275.94
2024-03-09T13:13:15.895Z,99259.97
2024-03-09T13:15:46.615Z,99263.00
2024-03-09T13:18:13.851Z,99263.13
2024-03-09T13:20:43.232Z,99263.00
2024-03-09T13:23:14.836Z,99260.25
2024-03-09T13:25:44.023Z,99255.16
2024-03-09T13:28:12.439Z,99251.69
2024-03-09T13:30:43.250Z,99249.25
2024-03-09T13:33:16.917Z,99242.56
2024-03-09T13:35:45.530Z,99237.56
2024-03-09T13:38:12.339Z,99232.78
2024-03-09T13:40:39.209Z,99232.28
2024-03-09T13:43:05.926Z,99237.84
2024-03-09T13:45:33.389Z,99226.53
2024-03-09T13:48:11.136Z,99230.34
2024-03-09T13:50:38.307Z,99224.56
2024-03-09T13:53:05.860Z,99231.19
2024-03-09T13:55:36.428Z,99216.94
2024-03-09T13:58:03.828Z,99220.38
2024-03-09T14:00:31.049Z,99217.63
2024-03-09T14:03:00.036Z,99219.09
2024-03-09T14:05:27.913Z,99223.66
2024-03-09T14:07:59.724Z,99225.03
2024-03-09T14:10:38.087Z,99216.13
2024-03-09T14:13:10.046Z,99220.78
2024-03-09T14:15:39.095Z,99205.59
2024-03-09T14:18:15.776Z,99202.22
2024-03-09T14:20:43.166Z,99204.78
2024-03-09T14:23:10.759Z,99203.75
2024-03-09T14:25:37.837Z,99204.19
2024-03-09T14:28:07.478Z,99207.03
2024-03-09T14:30:35.795Z,99198.69
2024-03-09T14:33:02.979Z,99195.09
2024-03-09T14:35:33.865Z,99196.97
2024-03-09T14:38:02.472Z,99189.47
2024-03-09T14:40:35.711Z,99186.47
2024-03-09T14:43:10.137Z,99184.84
2024-03-09T14:45:38.205Z,99181.16
2024-03-09T14:48:10.509Z,99179.38
2024-03-09T14:50:38.091Z,99186.28
2024-03-09T14:53:14.139Z,99186.47
2024-03-09T14:55:47.488Z,99172.75
2024-03-09T14:58:14.416Z,99179.44
2024-03-09T15:00:45.090Z,99176.72
2024-03-09T15:03:18.683Z,99169.38
2024-03-09T15:05:45.538Z,99170.94
2024-03-09T15:08:12.597Z,99166.31
2024-03-09T15:10:40.056Z,99161.34
2024-03-09T15:13:10.441Z,99164.72
2024-03-09T15:15:46.224Z,99158.19
2024-03-09T15:18:13.312Z,99160.84
2024-03-09T15:20:46.404Z,99163.34
2024-03-09T15:23:17.165Z,99153.22
2024-03-09T15:25:43.900Z,99146.13
2024-03-09T15:28:18.078Z,99142.19
2024-03-09T15:30:53.366Z,99141.13
2024-03-09T15:33:24.460Z,99141.81
2024-03-09T15:35:54.973Z,99137.13
2024-03-09T15:38:29.241Z,99135.63
2024-03-09T15:40:56.715Z,99128.75
2024-03-09T15:43:27.368Z,99130.13
2024-03-09T15:45:56.977Z,99127.69
2024-03-09T15:48:23.995Z,99129.94
2024-03-09T15:50:51.132Z,99127.81
2024-03-09T15:53:18.039Z,99116.31
2024-03-09T15:55:51.260Z,99121.25
2024-03-09T15:58:18.282Z,99120.19
2024-03-09T16:00:45.061Z,99116.19
2024-03-09T16:03:11.882Z,99115.44
2024-03-09T16:05:39.362Z,99110.59
2024-03-09T16:08:13.022Z,99124.31
2024-03-09T16:10:43.324Z,99124.09
2024-03-09T16:13:14.346Z,99123.75
2024-03-09T16:15:48.671Z,99122.81
2024-03-09T16:18:16.717Z,99127.75
2024-03-09T16:20:49.042Z,99131.16
2024-03-09T16:23:19.161Z,99124.50
2024-03-09T16:25:50.509Z,99128.41
2024-03-09T16:28:18.009Z,99117.94
2024-03-09T16:30:45.372Z,99126.50
2024-03-09T16:33:12.983Z,99119.44
2024-03-09T16:35:49.548Z,99122.38
2024-03-09T16:38:25.231Z,99125.31
2024-03-09T16:40:57.141Z,99125.16
2024-03-09T16:43:32.541Z,99119.16
2024-03-09T16:46:05.853Z,99118.59
2024-03-09T16:48:36.128Z,99118.06
2024-03-09T16:51:08.225Z,99122.41
2024-03-09T16:53:38.317Z,99126.34
2024-03-09T16:56:06.469Z,99126.00
2024-03-09T16:58:33.297Z,99130.00
2024-03-09T17:01:05.595Z,99130.69
2024-03-09T17:03:33.263Z,99132.69
2024-03-09T17:06:00.185Z,99127.25
2024-03-09T17:08:26.951Z,99133.44
2024-03-09T17:10:57.367Z,99130.19
2024-03-09T17:13:24.119Z,99129.44
2024-03-09T17:15:51.081Z,99131.81
2024-03-09T17:18:18.282Z,99134.56
2024-03-09T17:20:45.136Z,99138.84
2024-03-09T17:23:12.012Z,99142.22
2024-03-09T17:25:38.845Z,99139.31
2024-03-09T17:28:06.226Z,99139.31
2024-03-09T17:30:34.556Z,99147.81
2024-03-09T17:33:06.517Z,99152.69
2024-03-09T17:35:34.995Z,99149.59
2024-03-09T17:38:02.491Z,99157.03
2024-03-09T17:40:29.509Z,99161.34
2024-03-09T17:42:56.405Z,99168.47
2024-03-09T17:45:24.513Z,99169.44
2024-03-09T17:47:52.000Z,99173.97
2024-03-09T17:50:20.376Z,99177.91
2024-03-09T17:52:48.514Z,99184.97
2024-03-09T17:55:18.998Z,99185.81
2024-03-09T17:57:50.708Z,99185.81
2024-03-09T18:00:25.407Z,99186.66
2024-03-09T18:02:53.558Z,99192.22
2024-03-09T18:05:25.061Z,99193.72
2024-03-09T18:08:05.385Z,99193.91
2024-03-09T18:10:33.048Z,99187.50
2024-03-09T18:12:59.671Z,99191.94
2024-03-09T18:15:30.916Z,99185.81
2024-03-09T18:17:57.939Z,99192.03
2024-03-09T18:20:25.047Z,99190.38
2024-03-09T18:22:53.715Z,99194.53
2024-03-09T18:25:21.612Z,99192.59
2024-03-09T18:27:49.144Z,99196.06
2024-03-09T18:30:17.990Z,99198.41
2024-03-09T18:32:48.992Z,99195.63
2024-03-09T18:35:18.566Z,99204.97
2024-03-09T18:37:47.484Z,99205.06
2024-03-09T18:40:14.805Z,99211.00
2024-03-09T18:42:42.398Z,99196.97
2024-03-09T18:45:18.072Z,99191.59
2024-03-09T18:47:45.358Z,99189.28
2024-03-09T18:50:33.338Z,99185.09
2024-03-09T18:53:00.933Z,99182.66
2024-03-09T18:55:30.810Z,99184.63
2024-03-09T18:57:58.579Z,99180.34
2024-03-09T19:00:31.139Z,99172.94
2024-03-09T19:03:00.125Z,99178.56
2024-03-09T19:05:27.487Z,99177.03
2024-03-09T19:08:04.597Z,99167.72
2024-03-09T19:10:36.174Z,99171.34
2024-03-09T19:13:05.873Z,99174.09
2024-03-09T19:15:33.738Z,99162.31
2024-03-09T19:18:00.937Z,99156.38
2024-03-09T19:20:29.061Z,99146.91
2024-03-09T19:22:56.701Z,99149.06
2024-03-09T19:25:23.613Z,99146.00
2024-03-09T19:27:50.541Z,99140.97
2024-03-09T19:30:22.004Z,99137.78
2024-03-09T19:32:50.878Z,99141.69
2024-03-09T19:35:23.108Z,99153.56
2024-03-09T19:37:50.831Z,99149.50
2024-03-09T19:40:21.842Z,99142.53
2024-03-09T19:42:49.348Z,99142.03
2024-03-09T19:45:19.333Z,99148.22
2024-03-09T19:47:51.967Z,99147.28
2024-03-09T19:50:18.897Z,99155.03
2024-03-09T19:52:48.541Z,99145.78
2024-03-09T19:55:17.142Z,99147.63
2024-03-09T19:57:49.840Z,99139.59
2024-03-09T20:00:23.387Z,99145.09
2024-03-09T20:02:52.392Z,99145.09
2024-03-09T20:05:22.620Z,99150.44
2024-03-09T20:07:56.988Z,99153.06
2024-03-09T20:10:26.262Z,99151.19
2024-03-09T20:12:54.695Z,99146.97
2024-03-09T20:15:25.225Z,99146.88
2024-03-09T20:17:53.331Z,99140.69
2024-03-09T20:20:20.245Z,99139.06
2024-03-09T20:22:48.420Z,99143.41
2024-03-09T20:25:18.294Z,99133.72
2024-03-09T20:27:45.181Z,99135.94
2024-03-09T20:30:18.556Z,99126.63
2024-03-09T20:32:45.741Z,99127.81
2024-03-09T20:35:12.415Z,99131.97
2024-03-09T20:37:39.386Z,99123.31
2024-03-09T20:40:14.299Z,99132.47
2024-03-09T20:42:42.200Z,99121.81
2024-03-09T20:45:09.982Z,99123.91
2024-03-09T20:47:37.244Z,99129.94
2024-03-09T20:50:12.347Z,99128.38
2024-03-09T20:52:39.373Z,99139.22
2024-03-09T20:55:11.114Z,99135.66
2024-03-09T20:57:39.147Z,99127.38
2024-03-09T21:00:18.987Z,99119.94
2024-03-09T21:02:46.502Z,99115.28
2024-03-09T21:05:13.860Z,99107.91
2024-03-09T21:07:43.804Z,99111.47
2024-03-09T21:10:11.054Z,99100.63
2024-03-09T21:12:37.961Z,99098.69
2024-03-09T21:15:05.751Z,99098.59
2024-03-09T21:17:35.515Z,99096.81
2024-03-09T21:20:05.801Z,99094.72
2024-03-09T21:22:32.706Z,99081.41
2024-03-09T21:24:59.608Z,99086.47
2024-03-09T21:27:26.449Z,99075.75
2024-03-09T21:29:53.010Z,99077.41
2024-03-09T21:32:20.720Z,99072.22
2024-03-09T21:34:47.575Z,99078.00
2024-03-09T21:37:14.371Z,99073.03
2024-03-09T21:39:41.186Z,99067.06
2024-03-09T21:42:14.865Z,99067.91
2024-03-09T21:44:42.220Z,99057.41
2024-03-09T21:47:08.817Z,99059.59
2024-03-09T21:49:35.685Z,99064.94
2024-03-09T21:52:04.008Z,99062.19
2024-03-09T21:54:31.062Z,99050.22
2024-03-09T21:56:57.676Z,99049.94
2024-03-09T21:59:26.407Z,99045.72
2024-03-09T22:01:53.167Z,99038.59
2024-03-09T22:04:19.806Z,99030.16
2024-03-09T22:06:47.481Z,99035.63
2024-03-09T22:09:14.657Z,99030.41
2024-03-09T22:11:41.278Z,99027.84
2024-03-09T22:14:08.036Z,99023.97
2024-03-09T22:16:34.676Z,99024.72
2024-03-09T22:19:01.847Z,99021.06
2024-03-09T22:21:31.035Z,99014.97
2024-03-09T22:23:57.788Z,99017.34
2024-03-09T22:26:26.767Z,99015.06
2024-03-09T22:28:54.230Z,99012.53
2024-03-09T22:31:21.104Z,99011.34
2024-03-09T22:33:48.550Z,99015.16
2024-03-09T22:36:15.355Z,99012.63
2024-03-09T22:38:41.875Z,99015.72
2024-03-09T22:41:08.638Z,99007.50
2024-03-09T22:43:35.356Z,99003.28
2024-03-09T22:46:02.983Z,98994.38
2024-03-09T22:48:31.948Z,99001.78
2024-03-09T22:50:59.691Z,98999.13
2024-03-09T22:53:26.671Z,98983.81
2024-03-09T22:55:54.093Z,98991.09
2024-03-09T22:58:20.797Z,98979.47
2024-03-09T23:01:06.795Z,98975.25
2024-03-09T23:03:33.959Z,98978.28
2024-03-09T23:06:00.773Z,98982.28
2024-03-09T23:08:28.833Z,98981.34
2024-03-09T23:10:56.100Z,98979.66
2024-03-09T23:13:23.285Z,98988.03
2024-03-09T23:15:50.044Z,98985.09
2024-03-09T23:18:19.971Z,98993.88
2024-03-09T23:20:46.727Z,98998.22
2024-03-09T23:23:13.530Z,98996.34
2024-03-09T23:25:40.190Z,99006.53
2024-03-09T23:28:10.307Z,99002.00
2024-03-09T23:30:37.162Z,99000.50
2024-03-09T23:33:04.319Z,98999.13
2024-03-09T23:35:32.279Z,98994.41
2024-03-09T23:37:59.688Z,98992.69
2024-03-09T23:40:26.419Z,98991.50
2024-03-09T23:42:53.440Z,98990.25
2024-03-09T23:45:20.689Z,98984.75
2024-03-09T23:47:49.299Z,98990.16
2024-03-09T23:50:21.308Z,98987.38
2024-03-09T23:52:48.805Z,98986.16
2024-03-09T23:55:16.347Z,98971.75
2024-03-09T23:57:43.215Z,98975.75
